Main page
METAR-TAF:

METAR-TAF

Airports :

Nadi International Airport

Nadi, Fiji

latitude: 17-45S, longitude: 177-27E, elevation: 13 m

Current weather observation

The report was made 24 minutes ago, at 23:00 UTC
Wind 5 kt from the East/Southeast, varying between Northeast and South
Temperature 32°C
Humidity 67%
Pressure 1008 hPa
Visibility 10 km or more
Scattered clouds at a height of 2800 ft, Towering cumulus.
Scattered clouds at a height of 4800 ft

METAR: NFFN 212300Z 11005KT 050V190 9999 SCT028TCU SCT048 32/25 Q1008 NOSIG

Time: 11:24 (23:24 UTC)

Forecast

The report was made 6 hours and 18 minutes ago, at 17:06 UTC
Forecast valid from 21 at 18 UTC to 22 at 18 UTC
Wind 8 kt from the East
Visibility 10 km or more
Scattered clouds at a height of 2400 ft
Scattered clouds at a height of 4500 ft
Broken clouds at a height of 10000 ft
Becoming
from 21 at 22 UTC to 21 at 24 UTC
Wind 10 kt from the West/Northwest

TAF: NFFN 211706Z 2118/2218 10008KT 9999 SCT024 SCT045 BKN100 BECMG 2122/2124 29010KT

Weather observations and forecasts of more than 4000 airports (METAR and TAF reports).

The available stations are represented by yellow and red dots on the map.

Hover mouse over dot to see the name of the station.

Then click to see weather observations and forecasts.

To change the map : click on the green buttons with a black cross to zoom in, on the green button with a dash to zoom out, or on the green arrows for adjacent maps.


METAR-TAF: